This is the latest recevied weather packets stored in our database for station/object W3BRL. If no packets are shown the sender has not sent any weather packets the latest 1 day(s).
| Time | Temp. | Humidity | Pressure | Rain* | Wind** | Luminosity | Snow |
|---|---|---|---|---|---|---|---|
| 1778019747 | 22.22° C | 44% | 1006.2 hPa | 0 mm | 3.58 m/s, 237° | 118 W/m² | - |
| 1778019445 | 22.22° C | 43% | 1006.2 hPa | 0 mm | 9.39 m/s, 217° | 147 W/m² | - |
| 1778019141 | 22.22° C | 44% | 1006 hPa | 0 mm | 1.34 m/s, 228° | 165 W/m² | - |
| 1778018838 | 22.22° C | 44% | 1006.1 hPa | 0 mm | 4.92 m/s, 236° | 174 W/m² | - |
| 1778018536 | 22.22° C | 44% | 1006.2 hPa | 0 mm | 7.6 m/s, 263° | 170 W/m² | - |
| 1778018234 | 22.78° C | 44% | 1006.2 hPa | 0 mm | 8.49 m/s, 209° | 196 W/m² | - |
| 1778017931 | 22.22° C | 44% | 1006 hPa | 0 mm | 2.68 m/s, 206° | 215 W/m² | - |
| 1778017629 | 22.22° C | 45% | 1006 hPa | 0 mm | 2.68 m/s, 159° | 205 W/m² | - |
| 1778017326 | 22.22° C | 45% | 1005.9 hPa | 0 mm | 3.58 m/s, 206° | 194 W/m² | - |
| 1778017023 | 22.22° C | 45% | 1006.1 hPa | 0 mm | 3.13 m/s, 244° | 211 W/m² | - |
| 1778016720 | 22.22° C | 45% | 1006.1 hPa | 0 mm | 6.26 m/s, 245° | 224 W/m² | - |
| 1778016416 | 22.22° C | 46% | 1005.9 hPa | 0 mm | 5.81 m/s, 191° | 222 W/m² | - |
| 1778016114 | 21.11° C | 52% | 1006 hPa | 0 mm | 5.36 m/s, 219° | 203 W/m² | - |
| 1778015810 | 20.56° C | 54% | 1006 hPa | 0 mm | 2.68 m/s, 252° | 178 W/m² | - |
| 1778015508 | 20.56° C | 59% | 1006 hPa | 0 mm | 1.34 m/s, 163° | 212 W/m² | - |
| 1778015204 | 20.56° C | 61% | 1005.9 hPa | 0 mm | 2.24 m/s, 235° | 240 W/m² | - |
| 1778014901 | 20° C | 63% | 1006.1 hPa | 0 mm | 0.89 m/s, 185° | 337 W/m² | - |
| 1778014598 | 19.44° C | 67% | 1006.1 hPa | 0 mm | 0.89 m/s, 176° | 370 W/m² | - |
| 1778014297 | 18.89° C | 67% | 1006 hPa | 0 mm | 1.34 m/s, 199° | 330 W/m² | - |
| 1778014003 | 18.89° C | 67% | 1006 hPa | 0 mm | 1.79 m/s, 191° | 238 W/m² | - |
| 1778013691 | 19.44° C | 64% | 1006.2 hPa | 0 mm | 2.24 m/s, 276° | 123 W/m² | - |
| 1778013388 | 21.67° C | 52% | 1006.1 hPa | 0 mm | 4.02 m/s, 293° | 45 W/m² | - |
| 1778013085 | 22.22° C | 48% | 1006 hPa | 0 mm | 1.34 m/s, 212° | 73 W/m² | - |
| 1778012780 | 22.22° C | 47% | 1005.8 hPa | 0 mm | 0.89 m/s, 172° | 91 W/m² | - |
| 1778012476 | 22.22° C | 47% | 1005.8 hPa | 0 mm | 0.89 m/s, 182° | 146 W/m² | - |
* Rain latest hour (hover to see other rain measurements)
** Current wind speed in m/s (hover to see current wind gust speed)